Time,TemperatureF,DewpointF,PressureIn,WindDirection,WindDirectionDegrees,WindSpeedMPH,WindSpeedGustMPH,Humidity,HourlyPrecipIn,Conditions,Clouds,dailyrainin,SoftwareType,DateUTC
2013-06-07 00:00:00,56.7,50.6,29.89,North,0,0.0,0.0,80,0.03,,,0.00,WUHU216HW,2013-06-07 04:00:00,
2013-06-07 00:01:00,56.7,50.6,29.89,North,0,0.0,0.0,80,0.03,,,0.00,WUHU216HW,2013-06-07 04:01:00,
2013-06-07 00:02:00,56.5,50.4,29.89,North,0,0.0,0.0,80,0.03,,,0.00,WUHU216HW,2013-06-07 04:02:00,
2013-06-07 00:07:00,56.5,50.4,29.89,North,0,0.0,0.0,80,0.03,,,0.00,WUHU216HW,2013-06-07 04:07:00,
2013-06-07 00:12:00,56.3,50.2,29.89,North,0,0.0,0.0,80,0.03,,,0.01,WUHU216HW,2013-06-07 04:12:00,
2013-06-07 00:18:00,56.2,50.0,29.89,North,0,0.0,0.0,80,0.03,,,0.01,WUHU216HW,2013-06-07 04:18:00,
2013-06-07 00:23:00,56.2,50.4,29.89,North,0,0.0,0.0,81,0.03,,,0.01,WUHU216HW,2013-06-07 04:23:00,
2013-06-07 00:28:00,56.2,50.4,29.89,North,0,0.0,0.0,81,0.03,,,0.01,WUHU216HW,2013-06-07 04:28:00,
2013-06-07 00:33:00,56.0,50.2,29.88,North,0,0.0,0.0,81,0.02,,,0.01,WUHU216HW,2013-06-07 04:33:00,
2013-06-07 00:38:00,56.0,50.2,29.88,North,0,0.0,0.0,81,0.03,,,0.02,WUHU216HW,2013-06-07 04:38:00,
2013-06-07 00:43:00,56.0,50.2,29.87,North,0,0.0,0.0,81,0.04,,,0.04,WUHU216HW,2013-06-07 04:43:00,
2013-06-07 00:48:00,55.8,50.1,29.87,North,0,0.0,0.0,81,0.04,,,0.04,WUHU216HW,2013-06-07 04:48:00,
2013-06-07 00:53:00,55.8,50.1,29.87,North,0,0.0,0.0,81,0.04,,,0.04,WUHU216HW,2013-06-07 04:53:00,
2013-06-07 01:00:00,55.8,50.1,29.87,North,0,0.0,0.0,81,0.03,,,0.04,WUHU216HW,2013-06-07 05:00:00,
2013-06-07 01:05:00,55.8,50.1,29.86,North,0,0.0,0.0,81,0.03,,,0.04,WUHU216HW,2013-06-07 05:05:00,
2013-06-07 01:10:00,55.8,50.1,29.86,North,0,0.0,0.0,81,0.03,,,0.04,WUHU216HW,2013-06-07 05:10:00,
2013-06-07 01:15:00,55.8,50.1,29.86,North,0,0.0,0.0,81,0.03,,,0.04,WUHU216HW,2013-06-07 05:15:00,
2013-06-07 01:20:00,55.6,49.9,29.86,North,0,0.0,0.0,81,0.04,,,0.06,WUHU216HW,2013-06-07 05:20:00,
2013-06-07 01:25:00,55.6,50.1,29.86,North,0,0.0,0.0,82,0.04,,,0.06,WUHU216HW,2013-06-07 05:25:00,
2013-06-07 01:30:00,55.6,50.1,29.85,North,0,0.0,0.0,82,0.05,,,0.06,WUHU216HW,2013-06-07 05:30:00,
2013-06-07 01:35:00,55.6,50.1,29.85,North,0,0.0,0.0,82,0.04,,,0.06,WUHU216HW,2013-06-07 05:35:00,
2013-06-07 01:40:00,55.6,50.1,29.84,North,0,0.0,0.0,82,0.03,,,0.06,WUHU216HW,2013-06-07 05:40:00,
2013-06-07 01:45:00,55.4,50.0,29.85,North,0,0.0,0.0,82,0.03,,,0.06,WUHU216HW,2013-06-07 05:45:00,
2013-06-07 01:50:00,55.4,50.0,29.84,North,0,0.0,0.0,82,0.03,,,0.06,WUHU216HW,2013-06-07 05:50:00,
2013-06-07 01:56:00,55.3,49.8,29.84,North,0,0.0,0.0,82,0.03,,,0.06,WUHU216HW,2013-06-07 05:56:00,
2013-06-07 02:01:00,55.3,49.8,29.84,North,0,0.0,0.0,82,0.03,,,0.06,WUHU216HW,2013-06-07 06:01:00,
2013-06-07 02:06:00,55.3,49.8,29.84,North,0,0.0,0.0,82,0.03,,,0.06,WUHU216HW,2013-06-07 06:06:00,
2013-06-07 02:11:00,55.1,49.7,29.83,North,0,0.0,0.0,82,0.02,,,0.06,WUHU216HW,2013-06-07 06:11:00,
2013-06-07 02:16:00,55.1,49.7,29.83,North,0,0.0,0.0,82,0.01,,,0.06,WUHU216HW,2013-06-07 06:16:00,
2013-06-07 02:21:00,55.1,49.7,29.83,North,0,0.0,0.0,82,0.01,,,0.06,WUHU216HW,2013-06-07 06:21:00,
2013-06-07 02:26:00,55.1,50.0,29.83,North,0,0.0,0.0,83,0.00,,,0.06,WUHU216HW,2013-06-07 06:26:00,
2013-06-07 02:32:00,54.9,49.8,29.83,North,0,0.0,0.0,83,0.00,,,0.06,WUHU216HW,2013-06-07 06:32:00,
2013-06-07 02:37:00,54.9,49.8,29.83,North,0,0.0,0.0,83,0.00,,,0.06,WUHU216HW,2013-06-07 06:37:00,
2013-06-07 02:42:00,54.9,49.8,29.83,North,0,0.0,0.0,83,0.00,,,0.06,WUHU216HW,2013-06-07 06:42:00,
2013-06-07 02:47:00,54.9,49.8,29.83,North,0,0.0,0.0,83,0.00,,,0.06,WUHU216HW,2013-06-07 06:47:00,
2013-06-07 02:52:00,54.9,49.8,29.83,North,0,0.0,0.0,83,0.00,,,0.06,WUHU216HW,2013-06-07 06:52:00,
2013-06-07 02:57:00,54.9,49.8,29.83,North,0,0.0,0.0,83,0.00,,,0.06,WUHU216HW,2013-06-07 06:57:00,
2013-06-07 03:02:00,54.7,50.0,29.82,North,0,0.0,0.0,84,0.00,,,0.06,WUHU216HW,2013-06-07 07:02:00,
2013-06-07 03:07:00,54.9,50.1,29.82,North,0,0.0,0.0,84,0.00,,,0.06,WUHU216HW,2013-06-07 07:07:00,
2013-06-07 03:12:00,54.9,50.1,29.82,North,0,0.0,0.0,84,0.00,,,0.06,WUHU216HW,2013-06-07 07:12:00,
2013-06-07 03:17:00,54.7,49.6,29.82,North,0,0.0,0.0,83,0.00,,,0.06,WUHU216HW,2013-06-07 07:17:00,
2013-06-07 03:22:00,54.7,50.0,29.82,North,0,0.0,0.0,84,0.00,,,0.06,WUHU216HW,2013-06-07 07:22:00,
2013-06-07 03:27:00,54.7,50.0,29.82,North,0,0.0,0.0,84,0.00,,,0.06,WUHU216HW,2013-06-07 07:27:00,
2013-06-07 03:32:00,54.7,50.0,29.82,North,0,0.0,0.0,84,0.00,,,0.06,WUHU216HW,2013-06-07 07:32:00,
2013-06-07 03:37:00,54.7,50.0,29.82,North,0,0.0,0.0,84,0.00,,,0.06,WUHU216HW,2013-06-07 07:37:00,
2013-06-07 03:42:00,54.7,50.0,29.82,North,0,0.0,0.0,84,0.00,,,0.06,WUHU216HW,2013-06-07 07:42:00,
2013-06-07 04:00:00,54.7,50.0,29.82,North,0,0.0,0.0,84,0.00,,,0.06,WUHU216HW,2013-06-07 08:00:00,
2013-06-07 04:05:00,54.7,50.0,29.82,North,0,0.0,0.0,84,0.00,,,0.06,WUHU216HW,2013-06-07 08:05:00,
2013-06-07 04:10:00,54.7,50.0,29.82,North,0,0.0,0.0,84,0.00,,,0.06,WUHU216HW,2013-06-07 08:10:00,
2013-06-07 04:15:00,54.7,50.0,29.81,North,0,0.0,0.0,84,0.00,,,0.06,WUHU216HW,2013-06-07 08:15:00,
2013-06-07 04:20:00,54.7,50.0,29.82,North,0,0.0,0.0,84,0.00,,,0.06,WUHU216HW,2013-06-07 08:20:00,
2013-06-07 04:25:00,54.7,50.0,29.82,North,0,0.0,0.0,84,0.00,,,0.06,WUHU216HW,2013-06-07 08:25:00,
2013-06-07 04:30:00,54.7,50.0,29.82,North,0,0.0,0.0,84,0.00,,,0.06,WUHU216HW,2013-06-07 08:30:00,
2013-06-07 04:35:00,54.5,49.8,29.82,North,0,0.0,0.0,84,0.00,,,0.06,WUHU216HW,2013-06-07 08:35:00,
2013-06-07 04:40:00,54.5,49.8,29.82,North,0,0.0,0.0,84,0.00,,,0.06,WUHU216HW,2013-06-07 08:40:00,
2013-06-07 05:00:00,54.5,50.1,29.82,North,0,0.0,0.0,85,0.00,,,0.06,WUHU216HW,2013-06-07 09:00:00,
2013-06-07 05:05:00,54.4,50.0,29.82,North,0,0.0,0.0,85,0.00,,,0.06,WUHU216HW,2013-06-07 09:05:00,
2013-06-07 05:10:00,54.5,50.1,29.82,North,0,0.0,0.0,85,0.00,,,0.06,WUHU216HW,2013-06-07 09:10:00,
2013-06-07 05:15:00,54.4,50.0,29.81,North,0,0.0,0.0,85,0.00,,,0.06,WUHU216HW,2013-06-07 09:15:00,
2013-06-07 05:20:00,54.4,50.0,29.81,North,0,0.0,0.0,85,0.00,,,0.06,WUHU216HW,2013-06-07 09:20:00,
2013-06-07 05:25:00,54.4,50.0,29.81,North,0,0.0,0.0,85,0.00,,,0.06,WUHU216HW,2013-06-07 09:25:00,
2013-06-07 05:30:00,54.4,50.0,29.81,North,0,0.0,0.0,85,0.00,,,0.06,WUHU216HW,2013-06-07 09:30:00,
2013-06-07 05:36:00,54.4,50.0,29.81,North,0,0.0,0.0,85,0.00,,,0.06,WUHU216HW,2013-06-07 09:36:00,
2013-06-07 05:41:00,54.4,50.0,29.81,North,0,0.0,0.0,85,0.00,,,0.06,WUHU216HW,2013-06-07 09:41:00,
2013-06-07 05:46:00,54.4,50.0,29.82,North,0,0.0,0.0,85,0.01,,,0.06,WUHU216HW,2013-06-07 09:46:00,
2013-06-07 05:51:00,54.4,50.0,29.81,North,0,0.0,0.0,85,0.01,,,0.07,WUHU216HW,2013-06-07 09:51:00,
2013-06-07 05:56:00,54.4,50.0,29.81,North,0,0.0,0.0,85,0.01,,,0.07,WUHU216HW,2013-06-07 09:56:00,
2013-06-07 06:01:00,54.2,49.8,29.82,North,0,0.0,0.0,85,0.01,,,0.07,WUHU216HW,2013-06-07 10:01:00,
2013-06-07 06:06:00,54.2,50.0,29.82,North,0,0.0,0.0,86,0.01,,,0.07,WUHU216HW,2013-06-07 10:06:00,
2013-06-07 06:11:00,54.0,49.9,29.82,North,0,0.0,0.0,86,0.01,,,0.07,WUHU216HW,2013-06-07 10:11:00,
2013-06-07 06:16:00,54.0,49.9,29.82,North,0,0.0,0.0,86,0.02,,,0.08,WUHU216HW,2013-06-07 10:16:00,
2013-06-07 06:21:00,54.2,50.0,29.82,North,0,0.0,0.0,86,0.03,,,0.09,WUHU216HW,2013-06-07 10:21:00,
2013-06-07 06:26:00,54.0,49.9,29.82,North,0,0.0,0.0,86,0.03,,,0.09,WUHU216HW,2013-06-07 10:26:00,
2013-06-07 06:31:00,54.0,49.9,29.82,North,0,0.0,0.0,86,0.03,,,0.09,WUHU216HW,2013-06-07 10:31:00,
2013-06-07 06:36:00,54.2,50.0,29.82,North,0,0.0,0.0,86,0.03,,,0.09,WUHU216HW,2013-06-07 10:36:00,
2013-06-07 06:42:00,54.2,50.0,29.82,North,0,0.0,0.0,86,0.03,,,0.09,WUHU216HW,2013-06-07 10:42:00,
2013-06-07 07:00:00,54.4,50.2,29.82,North,0,0.0,0.0,86,0.02,,,0.09,WUHU216HW,2013-06-07 11:00:00,
2013-06-07 07:05:00,54.2,50.0,29.82,North,0,0.0,0.0,86,0.02,,,0.09,WUHU216HW,2013-06-07 11:05:00,
2013-06-07 07:10:00,54.4,50.2,29.82,North,0,0.0,0.0,86,0.02,,,0.09,WUHU216HW,2013-06-07 11:10:00,
2013-06-07 07:15:00,54.4,50.2,29.83,North,0,0.0,0.0,86,0.01,,,0.09,WUHU216HW,2013-06-07 11:15:00,
2013-06-07 07:20:00,54.4,50.6,29.82,North,0,0.0,0.0,87,0.00,,,0.09,WUHU216HW,2013-06-07 11:20:00,
2013-06-07 07:25:00,54.4,50.2,29.83,North,0,0.0,0.0,86,0.00,,,0.09,WUHU216HW,2013-06-07 11:25:00,
2013-06-07 07:30:00,54.4,50.2,29.83,North,0,0.0,0.0,86,0.00,,,0.09,WUHU216HW,2013-06-07 11:30:00,
2013-06-07 07:35:00,54.0,49.6,29.83,North,0,0.0,0.0,85,0.00,,,0.09,WUHU216HW,2013-06-07 11:35:00,
2013-06-07 07:40:00,54.0,49.6,29.83,North,0,0.0,0.0,85,0.00,,,0.09,WUHU216HW,2013-06-07 11:40:00,
2013-06-07 07:45:00,54.0,49.6,29.82,North,0,0.0,0.0,85,0.00,,,0.09,WUHU216HW,2013-06-07 11:45:00,
2013-06-07 07:50:00,53.8,49.4,29.83,North,0,0.0,0.0,85,0.00,,,0.09,WUHU216HW,2013-06-07 11:50:00,
2013-06-07 07:55:00,53.8,49.4,29.83,North,0,0.0,0.0,85,0.00,,,0.09,WUHU216HW,2013-06-07 11:55:00,
2013-06-07 08:01:00,54.0,49.6,29.83,North,0,0.0,0.0,85,0.00,,,0.09,WUHU216HW,2013-06-07 12:01:00,
2013-06-07 08:06:00,54.0,49.6,29.83,North,0,0.0,0.0,85,0.00,,,0.09,WUHU216HW,2013-06-07 12:06:00,
2013-06-07 08:11:00,54.2,49.8,29.83,North,0,0.0,0.0,85,0.00,,,0.09,WUHU216HW,2013-06-07 12:11:00,
2013-06-07 08:16:00,54.4,50.0,29.83,North,0,0.0,0.0,85,0.00,,,0.09,WUHU216HW,2013-06-07 12:16:00,
2013-06-07 08:21:00,54.4,50.0,29.83,North,0,0.0,0.0,85,0.00,,,0.09,WUHU216HW,2013-06-07 12:21:00,
2013-06-07 08:26:00,54.4,49.6,29.84,North,0,0.0,0.0,84,0.00,,,0.09,WUHU216HW,2013-06-07 12:26:00,
2013-06-07 08:31:00,54.4,50.0,29.83,North,0,0.0,0.0,85,0.00,,,0.09,WUHU216HW,2013-06-07 12:31:00,
2013-06-07 08:36:00,54.4,50.0,29.83,North,0,0.0,0.0,85,0.00,,,0.09,WUHU216HW,2013-06-07 12:36:00,
2013-06-07 08:41:00,54.4,50.0,29.83,North,0,0.0,0.0,85,0.00,,,0.09,WUHU216HW,2013-06-07 12:41:00,
2013-06-07 09:00:00,54.4,50.2,29.83,North,0,0.0,0.0,86,0.00,,,0.09,WUHU216HW,2013-06-07 13:00:00,
2013-06-07 09:05:00,54.5,50.1,29.84,North,0,0.0,0.0,85,0.00,,,0.09,WUHU216HW,2013-06-07 13:05:00,
2013-06-07 09:10:00,54.5,50.1,29.83,North,0,0.0,0.0,85,0.00,,,0.09,WUHU216HW,2013-06-07 13:10:00,
2013-06-07 09:15:00,54.4,50.0,29.83,North,0,0.0,0.0,85,0.00,,,0.09,WUHU216HW,2013-06-07 13:15:00,
2013-06-07 09:21:00,54.4,50.0,29.83,North,0,0.0,0.0,85,0.00,,,0.09,WUHU216HW,2013-06-07 13:21:00,
2013-06-07 09:26:00,54.4,50.0,29.84,North,0,0.0,0.0,85,0.00,,,0.09,WUHU216HW,2013-06-07 13:26:00,
2013-06-07 09:31:00,54.4,50.0,29.83,North,0,0.0,0.0,85,0.00,,,0.09,WUHU216HW,2013-06-07 13:31:00,
2013-06-07 09:36:00,54.2,49.8,29.84,North,0,0.0,0.0,85,0.00,,,0.09,WUHU216HW,2013-06-07 13:36:00,
2013-06-07 09:41:00,54.2,49.8,29.83,North,0,0.0,0.0,85,0.00,,,0.09,WUHU216HW,2013-06-07 13:41:00,
2013-06-07 09:46:00,54.2,49.8,29.83,North,0,0.0,0.0,85,0.00,,,0.09,WUHU216HW,2013-06-07 13:46:00,
2013-06-07 09:51:00,54.4,50.0,29.83,North,0,0.0,0.0,85,0.00,,,0.09,WUHU216HW,2013-06-07 13:51:00,
2013-06-07 09:56:00,54.4,50.0,29.84,North,0,0.0,0.0,85,0.00,,,0.09,WUHU216HW,2013-06-07 13:56:00,
2013-06-07 10:02:00,54.4,50.0,29.83,North,0,0.0,0.0,85,0.00,,,0.09,WUHU216HW,2013-06-07 14:02:00,
2013-06-07 10:07:00,54.4,50.0,29.83,North,0,0.0,0.0,85,0.00,,,0.09,WUHU216HW,2013-06-07 14:07:00,
2013-06-07 10:12:00,54.4,49.6,29.83,North,0,0.0,0.0,84,0.00,,,0.09,WUHU216HW,2013-06-07 14:12:00,
2013-06-07 10:17:00,54.4,49.6,29.83,North,0,0.0,0.0,84,0.00,,,0.09,WUHU216HW,2013-06-07 14:17:00,
2013-06-07 10:22:00,54.2,49.4,29.83,North,0,0.0,0.0,84,0.00,,,0.09,WUHU216HW,2013-06-07 14:22:00,
2013-06-07 10:27:00,54.2,49.4,29.83,North,0,0.0,0.0,84,0.00,,,0.09,WUHU216HW,2013-06-07 14:27:00,
2013-06-07 10:32:00,54.2,49.4,29.83,North,0,0.0,0.0,84,0.00,,,0.09,WUHU216HW,2013-06-07 14:32:00,
2013-06-07 10:37:00,54.0,49.2,29.83,North,0,0.0,0.0,84,0.00,,,0.09,WUHU216HW,2013-06-07 14:37:00,
2013-06-07 10:42:00,53.8,49.1,29.83,North,0,0.0,0.0,84,0.00,,,0.09,WUHU216HW,2013-06-07 14:42:00,
2013-06-07 10:47:00,53.8,49.1,29.83,North,0,0.0,0.0,84,0.00,,,0.09,WUHU216HW,2013-06-07 14:47:00,
2013-06-07 10:52:00,53.8,49.4,29.83,North,0,0.0,0.0,85,0.00,,,0.09,WUHU216HW,2013-06-07 14:52:00,
2013-06-07 10:57:00,53.6,49.2,29.83,North,0,0.0,0.0,85,0.00,,,0.09,WUHU216HW,2013-06-07 14:57:00,
2013-06-07 11:02:00,53.5,49.1,29.83,North,0,0.0,0.0,85,0.00,,,0.09,WUHU216HW,2013-06-07 15:02:00,
2013-06-07 11:07:00,53.5,49.1,29.83,North,0,0.0,0.0,85,0.00,,,0.09,WUHU216HW,2013-06-07 15:07:00,
2013-06-07 11:12:00,53.5,49.1,29.84,North,0,0.0,0.0,85,0.00,,,0.09,WUHU216HW,2013-06-07 15:12:00,
2013-06-07 11:17:00,53.5,49.3,29.83,North,0,0.0,0.0,86,0.00,,,0.09,WUHU216HW,2013-06-07 15:17:00,
2013-06-07 11:22:00,53.3,49.1,29.83,North,0,0.0,0.0,86,0.00,,,0.09,WUHU216HW,2013-06-07 15:22:00,
2013-06-07 11:28:00,53.1,49.0,29.83,North,0,0.0,0.0,86,0.00,,,0.09,WUHU216HW,2013-06-07 15:28:00,
2013-06-07 11:33:00,53.1,49.0,29.83,North,0,0.0,0.0,86,0.00,,,0.09,WUHU216HW,2013-06-07 15:33:00,
2013-06-07 11:38:00,53.1,49.0,29.84,North,0,0.0,0.0,86,0.00,,,0.09,WUHU216HW,2013-06-07 15:38:00,
2013-06-07 11:43:00,52.9,48.8,29.83,North,0,0.0,0.0,86,0.00,,,0.09,WUHU216HW,2013-06-07 15:43:00,
2013-06-07 11:48:00,52.9,48.8,29.83,North,0,0.0,0.0,86,0.00,,,0.09,WUHU216HW,2013-06-07 15:48:00,
2013-06-07 12:00:00,53.3,49.1,29.83,North,0,0.0,0.0,86,0.00,,,0.09,WUHU216HW,2013-06-07 16:00:00,
2013-06-07 12:05:00,53.3,49.1,29.83,North,0,0.0,0.0,86,0.00,,,0.09,WUHU216HW,2013-06-07 16:05:00,
2013-06-07 12:10:00,53.1,49.0,29.83,North,0,0.0,0.0,86,0.00,,,0.09,WUHU216HW,2013-06-07 16:10:00,
2013-06-07 12:15:00,53.1,49.0,29.83,North,0,0.0,0.0,86,0.00,,,0.09,WUHU216HW,2013-06-07 16:15:00,
2013-06-07 12:20:00,53.1,49.0,29.82,North,0,0.0,0.0,86,0.00,,,0.09,WUHU216HW,2013-06-07 16:20:00,
2013-06-07 12:25:00,53.1,49.0,29.83,North,0,0.0,0.0,86,0.00,,,0.09,WUHU216HW,2013-06-07 16:25:00,
2013-06-07 12:30:00,53.1,49.0,29.82,North,0,0.0,0.0,86,0.00,,,0.09,WUHU216HW,2013-06-07 16:30:00,
2013-06-07 12:35:00,53.1,49.0,29.82,North,0,0.0,0.0,86,0.00,,,0.09,WUHU216HW,2013-06-07 16:35:00,
2013-06-07 12:40:00,53.1,49.0,29.82,North,0,0.0,0.0,86,0.00,,,0.09,WUHU216HW,2013-06-07 16:40:00,
2013-06-07 13:00:00,53.5,49.3,29.82,North,0,0.0,0.0,86,0.00,,,0.09,WUHU216HW,2013-06-07 17:00:00,
2013-06-07 13:05:00,53.6,49.5,29.82,North,0,0.0,0.0,86,0.00,,,0.09,WUHU216HW,2013-06-07 17:05:00,
2013-06-07 13:10:00,53.8,49.7,29.81,North,0,0.0,0.0,86,0.00,,,0.09,WUHU216HW,2013-06-07 17:10:00,
2013-06-07 13:15:00,53.8,49.7,29.81,North,0,0.0,0.0,86,0.00,,,0.09,WUHU216HW,2013-06-07 17:15:00,
2013-06-07 13:20:00,53.8,49.7,29.81,North,0,0.0,0.0,86,0.00,,,0.09,WUHU216HW,2013-06-07 17:20:00,
2013-06-07 13:25:00,53.8,49.7,29.81,North,0,0.0,0.0,86,0.00,,,0.09,WUHU216HW,2013-06-07 17:25:00,
2013-06-07 13:30:00,53.8,49.7,29.81,North,0,0.0,0.0,86,0.00,,,0.09,WUHU216HW,2013-06-07 17:30:00,
2013-06-07 13:35:00,53.6,49.5,29.81,North,0,0.0,0.0,86,0.00,,,0.09,WUHU216HW,2013-06-07 17:35:00,
2013-06-07 13:40:00,53.6,49.5,29.81,North,0,0.0,0.0,86,0.00,,,0.09,WUHU216HW,2013-06-07 17:40:00,
2013-06-07 13:45:00,53.6,49.5,29.81,North,0,0.0,0.0,86,0.00,,,0.09,WUHU216HW,2013-06-07 17:45:00,
2013-06-07 13:50:00,53.8,49.7,29.81,North,0,0.0,0.0,86,0.00,,,0.09,WUHU216HW,2013-06-07 17:50:00,
2013-06-07 13:55:00,53.8,49.7,29.80,North,0,0.0,0.0,86,0.00,,,0.09,WUHU216HW,2013-06-07 17:55:00,
2013-06-07 14:00:00,53.8,49.7,29.80,North,0,0.0,0.0,86,0.00,,,0.09,WUHU216HW,2013-06-07 18:00:00,
2013-06-07 14:05:00,53.8,49.7,29.80,North,0,0.0,0.0,86,0.00,,,0.09,WUHU216HW,2013-06-07 18:05:00,
2013-06-07 14:11:00,54.0,50.2,29.80,North,0,0.0,0.0,87,0.00,,,0.09,WUHU216HW,2013-06-07 18:11:00,
2013-06-07 14:16:00,54.0,50.2,29.80,North,0,0.0,0.0,87,0.00,,,0.09,WUHU216HW,2013-06-07 18:16:00,
2013-06-07 14:21:00,54.2,50.4,29.80,North,0,0.0,0.0,87,0.00,,,0.09,WUHU216HW,2013-06-07 18:21:00,
2013-06-07 14:26:00,54.2,50.4,29.80,North,0,0.0,0.0,87,0.00,,,0.09,WUHU216HW,2013-06-07 18:26:00,
2013-06-07 14:31:00,54.4,50.6,29.80,North,0,0.0,0.0,87,0.00,,,0.09,WUHU216HW,2013-06-07 18:31:00,
2013-06-07 14:37:00,54.2,50.4,29.80,North,0,0.0,0.0,87,0.00,,,0.09,WUHU216HW,2013-06-07 18:37:00,
2013-06-07 14:42:00,54.2,50.4,29.80,North,0,0.0,0.0,87,0.00,,,0.09,WUHU216HW,2013-06-07 18:42:00,
2013-06-07 15:00:00,54.7,51.2,29.79,North,0,0.0,0.0,88,0.00,,,0.09,WUHU216HW,2013-06-07 19:00:00,
2013-06-07 15:05:00,54.5,51.0,29.79,North,0,0.0,0.0,88,0.00,,,0.09,WUHU216HW,2013-06-07 19:05:00,
2013-06-07 15:10:00,54.5,51.0,29.79,North,0,0.0,0.0,88,0.00,,,0.09,WUHU216HW,2013-06-07 19:10:00,
2013-06-07 15:15:00,54.7,51.2,29.79,North,0,0.0,0.0,88,0.00,,,0.09,WUHU216HW,2013-06-07 19:15:00,
2013-06-07 15:20:00,54.7,51.2,29.78,North,0,0.0,0.0,88,0.00,,,0.09,WUHU216HW,2013-06-07 19:20:00,
2013-06-07 15:26:00,54.9,51.4,29.78,North,0,0.0,0.0,88,0.00,,,0.09,WUHU216HW,2013-06-07 19:26:00,
2013-06-07 15:31:00,55.1,51.6,29.78,North,0,0.0,0.0,88,0.00,,,0.09,WUHU216HW,2013-06-07 19:31:00,
2013-06-07 15:36:00,55.1,51.6,29.78,North,0,0.0,0.0,88,0.00,,,0.09,WUHU216HW,2013-06-07 19:36:00,
2013-06-07 15:42:00,55.1,51.6,29.78,North,0,0.0,0.0,88,0.00,,,0.09,WUHU216HW,2013-06-07 19:42:00,
2013-06-07 15:47:00,55.1,51.6,29.77,North,0,0.0,0.0,88,0.00,,,0.09,WUHU216HW,2013-06-07 19:47:00,
2013-06-07 15:52:00,55.1,51.6,29.77,North,0,0.0,0.0,88,0.00,,,0.09,WUHU216HW,2013-06-07 19:52:00,
2013-06-07 15:57:00,55.1,51.6,29.77,North,0,0.0,0.0,88,0.00,,,0.09,WUHU216HW,2013-06-07 19:57:00,
2013-06-07 16:03:00,55.3,51.8,29.77,North,0,0.0,0.0,88,0.00,,,0.09,WUHU216HW,2013-06-07 20:03:00,
2013-06-07 16:08:00,55.3,51.8,29.77,North,0,0.0,0.0,88,0.00,,,0.09,WUHU216HW,2013-06-07 20:08:00,
2013-06-07 16:13:00,55.3,51.8,29.77,North,0,0.0,0.0,88,0.00,,,0.09,WUHU216HW,2013-06-07 20:13:00,
2013-06-07 16:18:00,55.4,51.9,29.76,North,0,0.0,0.0,88,0.00,,,0.09,WUHU216HW,2013-06-07 20:18:00,
2013-06-07 16:23:00,55.3,51.8,29.76,North,0,0.0,0.0,88,0.00,,,0.09,WUHU216HW,2013-06-07 20:23:00,
2013-06-07 16:28:00,55.3,51.8,29.76,North,0,0.0,0.0,88,0.02,,,0.11,WUHU216HW,2013-06-07 20:28:00,
2013-06-07 16:32:00,55.3,51.8,29.75,North,0,0.0,0.0,88,0.02,,,0.11,WUHU216HW,2013-06-07 20:32:00,
2013-06-07 16:34:00,55.3,51.8,29.75,North,0,0.0,0.0,88,0.02,,,0.11,WUHU216HW,2013-06-07 20:34:00,
2013-06-07 16:39:00,55.3,51.8,29.75,North,0,0.0,0.0,88,0.02,,,0.11,WUHU216HW,2013-06-07 20:39:00,
2013-06-07 17:00:00,55.6,52.1,29.74,North,0,0.0,0.0,88,0.02,,,0.11,WUHU216HW,2013-06-07 21:00:00,
2013-06-07 17:05:00,55.6,52.1,29.74,North,0,0.0,0.0,88,0.02,,,0.11,WUHU216HW,2013-06-07 21:05:00,
2013-06-07 17:10:00,55.6,52.1,29.74,North,0,0.0,0.0,88,0.02,,,0.11,WUHU216HW,2013-06-07 21:10:00,
2013-06-07 17:15:00,55.4,51.9,29.74,North,0,0.0,0.0,88,0.02,,,0.11,WUHU216HW,2013-06-07 21:15:00,
2013-06-07 17:20:00,55.6,52.1,29.74,North,0,0.0,0.0,88,0.01,,,0.11,WUHU216HW,2013-06-07 21:20:00,
2013-06-07 17:25:00,55.6,52.1,29.74,North,0,0.0,0.0,88,0.00,,,0.11,WUHU216HW,2013-06-07 21:25:00,
2013-06-07 17:31:00,55.6,52.1,29.74,North,0,0.0,0.0,88,0.00,,,0.11,WUHU216HW,2013-06-07 21:31:00,
2013-06-07 17:36:00,55.4,51.9,29.74,North,0,0.0,0.0,88,0.00,,,0.11,WUHU216HW,2013-06-07 21:36:00,
2013-06-07 17:41:00,55.6,52.1,29.74,North,0,0.0,0.0,88,0.00,,,0.11,WUHU216HW,2013-06-07 21:41:00,
2013-06-07 17:46:00,55.6,52.1,29.73,North,0,0.0,0.0,88,0.00,,,0.11,WUHU216HW,2013-06-07 21:46:00,
2013-06-07 17:51:00,55.6,52.1,29.73,North,0,0.0,0.0,88,0.00,,,0.11,WUHU216HW,2013-06-07 21:51:00,
2013-06-07 18:00:00,55.6,52.1,29.73,North,0,0.0,0.0,88,0.00,,,0.11,WUHU216HW,2013-06-07 22:00:00,
2013-06-07 18:05:00,55.6,52.1,29.73,North,0,0.0,0.0,88,0.00,,,0.11,WUHU216HW,2013-06-07 22:05:00,
2013-06-07 19:00:00,54.9,51.4,29.72,North,0,0.0,0.0,88,0.00,,,0.11,WUHU216HW,2013-06-07 23:00:00,
2013-06-07 19:05:00,54.9,51.4,29.72,North,0,0.0,0.0,88,0.00,,,0.11,WUHU216HW,2013-06-07 23:05:00,
2013-06-07 19:10:00,54.7,51.2,29.72,North,0,0.0,0.0,88,0.00,,,0.11,WUHU216HW,2013-06-07 23:10:00,
2013-06-07 19:15:00,54.7,51.2,29.72,North,0,0.0,0.0,88,0.00,,,0.11,WUHU216HW,2013-06-07 23:15:00,
2013-06-07 19:20:00,54.5,51.0,29.72,North,0,0.0,0.0,88,0.00,,,0.11,WUHU216HW,2013-06-07 23:20:00,
2013-06-07 19:26:00,54.4,50.9,29.71,North,0,0.0,0.0,88,0.00,,,0.11,WUHU216HW,2013-06-07 23:26:00,
2013-06-07 19:31:00,54.4,51.2,29.71,North,0,0.0,0.0,89,0.00,,,0.11,WUHU216HW,2013-06-07 23:31:00,
2013-06-07 19:36:00,54.4,51.2,29.71,North,0,0.0,0.0,89,0.00,,,0.11,WUHU216HW,2013-06-07 23:36:00,
2013-06-07 19:41:00,54.4,51.2,29.71,North,0,0.0,0.0,89,0.00,,,0.11,WUHU216HW,2013-06-07 23:41:00,
2013-06-07 20:00:00,54.0,50.9,29.70,North,0,0.0,0.0,89,0.00,,,0.11,WUHU216HW,2013-06-08 00:00:00,
2013-06-07 20:05:00,53.8,50.7,29.70,North,0,0.0,0.0,89,0.00,,,0.11,WUHU216HW,2013-06-08 00:05:00,
2013-06-07 20:10:00,53.8,50.7,29.69,North,0,0.0,0.0,89,0.00,,,0.11,WUHU216HW,2013-06-08 00:10:00,
2013-06-07 20:15:00,53.8,50.7,29.69,North,0,0.0,0.0,89,0.00,,,0.11,WUHU216HW,2013-06-08 00:15:00,
2013-06-07 20:20:00,53.8,50.7,29.69,North,0,0.0,0.0,89,0.00,,,0.11,WUHU216HW,2013-06-08 00:20:00,
2013-06-07 20:26:00,53.6,50.5,29.68,North,0,0.0,0.0,89,0.00,,,0.11,WUHU216HW,2013-06-08 00:26:00,
2013-06-07 20:31:00,53.5,50.3,29.67,North,0,0.0,0.0,89,0.00,,,0.11,WUHU216HW,2013-06-08 00:31:00,
2013-06-07 20:37:00,53.3,50.1,29.67,North,0,0.0,0.0,89,0.00,,,0.11,WUHU216HW,2013-06-08 00:37:00,
2013-06-07 20:42:00,53.1,50.0,29.67,North,0,0.0,0.0,89,0.00,,,0.11,WUHU216HW,2013-06-08 00:42:00,
2013-06-07 20:47:00,53.1,50.0,29.68,North,0,0.0,0.0,89,0.00,,,0.11,WUHU216HW,2013-06-08 00:47:00,
2013-06-07 20:52:00,53.1,50.0,29.68,North,0,0.0,0.0,89,0.00,,,0.11,WUHU216HW,2013-06-08 00:52:00,
2013-06-07 20:57:00,53.1,50.0,29.68,North,0,0.0,0.0,89,0.00,,,0.11,WUHU216HW,2013-06-08 00:57:00,
2013-06-07 21:03:00,53.1,50.0,29.68,North,0,0.0,0.0,89,0.00,,,0.11,WUHU216HW,2013-06-08 01:03:00,
2013-06-07 21:09:00,52.9,49.8,29.68,North,0,0.0,0.0,89,0.00,,,0.11,WUHU216HW,2013-06-08 01:09:00,
2013-06-07 21:14:00,52.9,49.8,29.68,North,0,0.0,0.0,89,0.00,,,0.11,WUHU216HW,2013-06-08 01:14:00,
2013-06-07 21:19:00,52.9,49.8,29.68,North,0,0.0,0.0,89,0.00,,,0.11,WUHU216HW,2013-06-08 01:19:00,
2013-06-07 21:24:00,52.9,49.8,29.68,North,0,0.0,0.0,89,0.00,,,0.11,WUHU216HW,2013-06-08 01:24:00,
2013-06-07 21:29:00,52.9,49.8,29.68,North,0,0.0,0.0,89,0.00,,,0.11,WUHU216HW,2013-06-08 01:29:00,
2013-06-07 21:34:00,52.9,49.8,29.68,North,0,0.0,0.0,89,0.00,,,0.11,WUHU216HW,2013-06-08 01:34:00,
2013-06-07 21:39:00,52.9,49.8,29.68,North,0,0.0,0.0,89,0.00,,,0.11,WUHU216HW,2013-06-08 01:39:00,
2013-06-07 22:00:00,52.6,49.4,29.68,North,0,0.0,0.0,89,0.00,,,0.11,WUHU216HW,2013-06-08 02:00:00,
2013-06-07 22:05:00,52.6,49.4,29.68,North,0,0.0,0.0,89,0.00,,,0.11,WUHU216HW,2013-06-08 02:05:00,
2013-06-07 22:10:00,52.6,49.4,29.68,North,0,0.0,0.0,89,0.00,,,0.11,WUHU216HW,2013-06-08 02:10:00,
2013-06-07 22:15:00,52.4,49.2,29.68,North,0,0.0,0.0,89,0.00,,,0.11,WUHU216HW,2013-06-08 02:15:00,
2013-06-07 22:21:00,52.4,49.2,29.68,North,0,0.0,0.0,89,0.00,,,0.11,WUHU216HW,2013-06-08 02:21:00,
2013-06-07 22:26:00,52.4,49.2,29.68,North,0,0.0,0.0,89,0.00,,,0.11,WUHU216HW,2013-06-08 02:26:00,
2013-06-07 22:31:00,52.4,49.2,29.68,North,0,0.0,0.0,89,0.00,,,0.11,WUHU216HW,2013-06-08 02:31:00,
2013-06-07 22:33:00,52.4,49.2,29.68,North,0,0.0,0.0,89,0.00,,,0.11,WUHU216HW,2013-06-08 02:33:00,
2013-06-07 22:36:00,52.4,49.2,29.68,North,0,0.0,0.0,89,0.00,,,0.11,WUHU216HW,2013-06-08 02:36:00,
2013-06-07 22:41:00,52.4,49.2,29.68,North,0,0.0,0.0,89,0.00,,,0.11,WUHU216HW,2013-06-08 02:41:00,
2013-06-07 23:00:00,52.2,49.1,29.65,North,0,0.0,0.0,89,0.00,,,0.11,WUHU216HW,2013-06-08 03:00:00,
2013-06-07 23:05:00,52.2,49.1,29.65,North,0,0.0,0.0,89,0.00,,,0.11,WUHU216HW,2013-06-08 03:05:00,
2013-06-07 23:10:00,52.0,48.9,29.64,North,0,0.0,0.0,89,0.00,,,0.11,WUHU216HW,2013-06-08 03:10:00,
2013-06-07 23:15:00,52.0,48.9,29.64,North,0,0.0,0.0,89,0.00,,,0.11,WUHU216HW,2013-06-08 03:15:00,
2013-06-07 23:20:00,52.0,48.9,29.64,North,0,0.0,0.0,89,0.00,,,0.11,WUHU216HW,2013-06-08 03:20:00,
2013-06-07 23:25:00,51.8,49.0,29.64,North,0,0.0,0.0,90,0.00,,,0.11,WUHU216HW,2013-06-08 03:25:00,
2013-06-07 23:30:00,51.8,48.7,29.65,North,0,0.0,0.0,89,0.00,,,0.11,WUHU216HW,2013-06-08 03:30:00,
2013-06-07 23:35:00,51.8,49.0,29.65,North,0,0.0,0.0,90,0.00,,,0.11,WUHU216HW,2013-06-08 03:35:00,
2013-06-07 23:41:00,51.8,49.0,29.64,North,0,0.0,0.0,90,0.00,,,0.11,WUHU216HW,2013-06-08 03:41:00,
2013-06-07 23:47:00,51.8,49.0,29.64,North,0,0.0,0.0,90,0.00,,,0.11,WUHU216HW,2013-06-08 03:47:00,
2013-06-07 23:52:00,51.8,49.0,29.62,North,0,0.0,0.0,90,0.00,,,0.11,WUHU216HW,2013-06-08 03:52:00,
2013-06-07 23:57:00,51.8,49.0,29.62,North,0,0.0,0.0,90,0.00,,,0.11,WUHU216HW,2013-06-08 03:57:00,